Al Rekayyat — V7QF3 — position and weather

sailwx.info

Track history (hours):
 
Tides and Currents Weather Stations Pressure Air Temp Water Temp Dewpoint Dewpoint Depression Visibility Wind Speed Wind Dir Waves Ship Positions

Al Rekayyat

Last reported at 2015-Aug-01 23:11 UTC. Time now 2015-Aug-02 20:21 UTC.
Position N 03°16' E 100°37'.

Length 315 m; draft 9.3 m.

Type: Ship (hazmat cat D). MMSI: 538003347.

Date/timePositionNaut miles runAvg speedWind from/ knotsBaromVisibWave heightAir tempDewpointWater temp
2015-Aug-01 23:11N 03°16' E 100°37'2817.1
2015-Aug-01 21:33N 02°54' E 100°55'1916.1
2015-Aug-01 20:22N 02°44' E 101°11'1518.1
2015-Aug-01 19:33N 02°37' E 101°24'1919.0
2015-Aug-01 18:33N 02°26' E 101°40'13916.5
2015-Aug-01 10:07N 01°12' E 103°38'812.3
2015-Aug-01 09:30N 01°09' E 103°45'1112.1
2015-Aug-01 08:33N 01°13' E 103°55'1212.1
2015-Aug-01 07:33N 01°16' E 104°07'  
Track history (hours):
 
Tides and Currents Weather Stations Pressure Air Temp Water Temp Dewpoint Dewpoint Depression Visibility Wind Speed Wind Dir Waves Ship Positions

Al Rekayyat

Last reported at 2015-Aug-01 23:11 UTC. Time now 2015-Aug-02 20:21 UTC.
Position N 03°16' E 100°37'.

Length 315 m; draft 9.3 m.

Type: Ship (hazmat cat D). MMSI: 538003347.

Date/timePositionNaut miles runAvg speedWind from/ knotsBaromVisibWave heightAir tempDewpointWater temp
2015-Aug-01 23:11N 03°16' E 100°37'2817.1
2015-Aug-01 21:33N 02°54' E 100°55'1916.1
2015-Aug-01 20:22N 02°44' E 101°11'1518.1
2015-Aug-01 19:33N 02°37' E 101°24'1919.0
2015-Aug-01 18:33N 02°26' E 101°40'13916.5
2015-Aug-01 10:07N 01°12' E 103°38'812.3
2015-Aug-01 09:30N 01°09' E 103°45'1112.1
2015-Aug-01 08:33N 01°13' E 103°55'1212.1
2015-Aug-01 07:33N 01°16' E 104°07'  

Dump ship's entire track history